Time;durP1;ratioP1;P1;durP2;ratioP2;P2;SDS_P1;SDS_P2;PMS_P1;PMS_P2;Temp;Humidity;BMP_temperature;BMP_pressure;BME280_temperature;BME280_humidity;BME280_pressure;Samples;Min_cycle;Max_cycle;Signal;HPM_P1;HPM_P2
2023/11/09 00:01:10;;;;;;;1.00;0.93;;;;;;;8.09;98.94;99111.44;5047675;28;20378;-69
2023/11/09 00:03:36;;;;;;;4.43;2.50;;;;;;;8.23;99.22;99123.25;5065567;28;20093;-68
2023/11/09 00:06:02;;;;;;;2.10;1.90;;;;;;;8.28;98.95;99121.41;5047655;28;20041;-68
2023/11/09 00:08:30;;;;;;;4.22;2.63;;;;;;;8.26;99.11;99115.44;5065360;28;20056;-70
2023/11/09 00:10:56;;;;;;;3.45;1.88;;;;;;;8.36;98.16;99122.13;5047543;28;20070;-70
2023/11/09 00:13:21;;;;;;;5.63;4.10;;;;;;;8.42;98.32;99122.00;5047137;28;20017;-69
2023/11/09 00:15:47;;;;;;;6.15;3.67;;;;;;;8.35;98.76;99117.84;5065489;28;20025;-70
2023/11/09 00:18:21;;;;;;;9.30;5.38;;;;;;;8.40;98.82;99110.00;5065364;28;20081;-70
2023/11/09 00:20:50;;;;;;;3.70;3.13;;;;;;;8.36;98.43;99093.69;5065408;28;20158;-71
2023/11/09 00:23:16;;;;;;;25.08;4.78;;;;;;;8.50;97.97;99101.16;5046972;28;20016;-70
2023/11/09 00:25:42;;;;;;;3.80;3.45;;;;;;;8.53;97.73;99093.31;5045750;28;20025;-70
2023/11/09 00:28:07;;;;;;;15.98;4.68;;;;;;;8.45;98.18;99086.63;5047183;28;20093;-70
2023/11/09 00:30:32;;;;;;;7.32;4.55;;;;;;;8.54;97.02;99089.00;5065131;28;20021;-69
2023/11/09 00:32:58;;;;;;;14.05;4.85;;;;;;;8.50;97.26;99093.38;5065065;28;20024;-69
2023/11/09 00:35:23;;;;;;;5.25;4.25;;;;;;;8.43;97.18;99082.31;5065138;28;20029;-69
2023/11/09 00:37:50;;;;;;;3.15;1.88;;;;;;;8.46;97.22;99083.13;5064686;28;20031;-69
2023/11/09 00:40:16;;;;;;;9.15;4.97;;;;;;;8.47;96.31;99079.66;5065117;28;20262;-67
2023/11/09 00:42:41;;;;;;;6.63;5.68;;;;;;;8.37;96.28;99068.69;5064718;28;20450;-68
2023/11/09 00:45:07;;;;;;;7.45;4.43;;;;;;;8.29;96.72;99071.44;5064982;28;20017;-68
2023/11/09 00:47:32;;;;;;;11.68;6.97;;;;;;;8.26;97.17;99072.31;5065171;28;20017;-69
2023/11/09 00:49:58;;;;;;;12.45;4.35;;;;;;;8.28;96.64;99069.72;5064948;28;20056;-69
2023/11/09 00:52:24;;;;;;;6.00;3.97;;;;;;;8.19;97.13;99063.00;5064822;28;20027;-68
2023/11/09 00:54:51;;;;;;;10.77;4.20;;;;;;;8.27;96.66;99062.84;5064831;28;20025;-68
2023/11/09 00:57:16;;;;;;;1.20;1.15;;;;;;;8.23;96.72;99051.72;5064904;28;20047;-67
2023/11/09 00:59:46;;;;;;;17.90;4.78;;;;;;;8.18;96.71;99041.47;5064896;28;20469;-67
2023/11/09 01:02:11;;;;;;;1.25;1.17;;;;;;;8.37;95.71;99046.25;5064686;28;20350;-70
2023/11/09 01:04:37;;;;;;;8.95;4.80;;;;;;;8.23;96.31;99040.50;5064693;28;20029;-69
2023/11/09 01:07:04;;;;;;;9.35;4.57;;;;;;;8.26;95.82;99030.13;5064328;28;20049;-67
2023/11/09 01:09:30;;;;;;;7.20;3.53;;;;;;;8.24;95.62;99027.53;5064713;28;20037;-67
2023/11/09 01:11:56;;;;;;;6.13;3.97;;;;;;;8.09;96.76;99026.13;5064575;28;20059;-68
2023/11/09 01:14:21;;;;;;;6.18;3.85;;;;;;;7.97;97.26;99009.13;5064747;28;20025;-69
2023/11/09 01:16:47;;;;;;;8.45;4.85;;;;;;;8.09;96.51;99010.63;5064894;28;20016;-70
2023/11/09 01:19:13;;;;;;;3.22;1.85;;;;;;;8.17;96.40;99015.63;5064570;28;20017;-70
2023/11/09 01:21:38;;;;;;;5.28;3.97;;;;;;;8.02;96.69;98996.16;5064622;28;20029;-70
2023/11/09 01:24:04;;;;;;;3.88;2.92;;;;;;;7.96;97.58;98996.25;5065961;28;20017;-69
2023/11/09 01:26:29;;;;;;;6.32;3.65;;;;;;;7.98;97.46;98987.59;5068754;28;20024;-69
2023/11/09 01:28:55;;;;;;;1.42;1.23;;;;;;;8.07;96.75;98986.53;5068600;28;20021;-70
2023/11/09 01:31:21;;;;;;;1.23;0.77;;;;;;;8.12;96.78;98987.31;5050526;28;20071;-72
2023/11/09 01:33:47;;;;;;;8.73;2.72;;;;;;;7.98;97.27;98972.09;5050571;28;20045;-73
2023/11/09 01:36:16;;;;;;;2.58;2.38;;;;;;;8.01;96.58;98959.09;5068426;28;20032;-74
2023/11/09 01:38:42;;;;;;;7.97;3.47;;;;;;;7.83;97.79;98954.34;5068389;28;20084;-74
2023/11/09 01:41:08;;;;;;;0.93;0.80;;;;;;;8.05;97.35;98952.97;5068235;28;20081;-73
2023/11/09 01:43:34;;;;;;;6.93;1.13;;;;;;;8.45;94.46;98946.97;5068166;28;20025;-71
2023/11/09 01:46:01;;;;;;;6.07;3.20;;;;;;;7.97;96.45;98960.03;5068466;28;20039;-71
2023/11/09 01:48:27;;;;;;;2.55;2.38;;;;;;;8.02;96.87;98947.88;5068249;28;20080;-71
2023/11/09 01:50:53;;;;;;;2.83;1.70;;;;;;;7.92;97.34;98948.97;5050311;28;20084;-71
2023/11/09 01:53:19;;;;;;;1.92;1.67;;;;;;;7.89;97.88;98946.44;5068191;28;20016;-72
2023/11/09 01:55:45;;;;;;;4.97;3.03;;;;;;;7.79;98.54;98946.66;5068128;28;20025;-72
2023/11/09 01:58:12;;;;;;;5.20;3.35;;;;;;;7.79;99.11;98943.19;5068417;28;20021;-71
2023/11/09 02:00:38;;;;;;;3.42;2.15;;;;;;;7.92;97.93;98936.03;5068248;28;20017;-71
2023/11/09 02:03:05;;;;;;;2.75;2.50;;;;;;;7.78;98.72;98933.75;5068168;28;20025;-71
2023/11/09 02:05:33;;;;;;;2.05;1.02;;;;;;;7.86;98.55;98931.84;5067964;28;20031;-71
2023/11/09 02:07:58;;;;;;;1.55;1.45;;;;;;;7.78;99.24;98926.00;5067749;28;20078;-72
2023/11/09 02:10:24;;;;;;;4.70;1.88;;;;;;;7.65;99.34;98905.56;5067770;28;20118;-72
2023/11/09 02:12:50;;;;;;;1.80;1.55;;;;;;;7.73;99.58;98913.16;5050021;28;20029;-71
2023/11/09 02:15:16;;;;;;;2.15;1.90;;;;;;;7.77;99.46;98919.97;5067774;28;20021;-71
2023/11/09 02:17:41;;;;;;;3.70;1.27;;;;;;;7.98;98.20;98901.44;5067796;28;20028;-72
2023/11/09 02:20:09;;;;;;;6.55;1.92;;;;;;;7.81;98.68;98903.50;5067704;28;20032;-70
2023/11/09 02:22:37;;;;;;;2.70;1.75;;;;;;;7.83;98.47;98898.31;5067449;28;20064;-70
2023/11/09 02:25:03;;;;;;;0.90;0.90;;;;;;;7.71;99.51;98894.28;5067617;28;20025;-72
2023/11/09 02:27:29;;;;;;;2.40;1.90;;;;;;;7.76;99.66;98896.75;5067533;28;20504;-71
2023/11/09 02:29:54;;;;;;;5.55;2.10;;;;;;;7.77;99.33;98899.31;5049423;28;20029;-72
2023/11/09 02:32:19;;;;;;;0.57;0.57;;;;;;;7.91;99.04;98893.84;5067823;28;20040;-73
2023/11/09 02:34:47;;;;;;;5.10;1.15;;;;;;;7.80;98.88;98888.03;5049449;28;20466;-72
2023/11/09 02:37:13;;;;;;;3.05;1.77;;;;;;;7.72;99.70;98874.44;5067264;28;20084;-72
2023/11/09 02:39:39;;;;;;;2.38;1.90;;;;;;;7.82;99.08;98891.47;5049342;28;20032;-72
2023/11/09 02:42:05;;;;;;;2.60;1.90;;;;;;;7.75;99.56;98882.13;5067089;28;20028;-72
2023/11/09 02:44:30;;;;;;;2.10;1.90;;;;;;;7.74;99.57;98878.72;5067571;28;20029;-73
2023/11/09 02:46:56;;;;;;;4.43;1.52;;;;;;;7.73;99.52;98877.00;5067253;28;20033;-72
2023/11/09 02:49:21;;;;;;;2.83;2.00;;;;;;;7.68;100.00;98879.66;5067140;28;20025;-73
2023/11/09 02:51:47;;;;;;;0.80;0.80;;;;;;;7.78;99.78;98879.50;5066779;28;20264;-71
2023/11/09 02:54:13;;;;;;;13.85;2.28;;;;;;;7.69;100.00;98871.06;5049261;28;20590;-71
2023/11/09 02:56:38;;;;;;;0.40;0.40;;;;;;;7.74;99.68;98868.38;5067082;28;20092;-71
2023/11/09 02:59:04;;;;;;;0.40;0.40;;;;;;;7.75;99.70;98876.97;5067010;28;20027;-72
2023/11/09 03:01:29;;;;;;;0.40;0.40;;;;;;;7.56;100.00;98848.94;5049047;28;20142;-71
2023/11/09 03:03:55;;;;;;;0.40;0.40;;;;;;;7.65;100.00;98871.16;5066793;28;20485;-71
2023/11/09 03:06:21;;;;;;;0.40;0.40;;;;;;;7.88;99.19;98855.16;5066883;28;20037;-71
2023/11/09 03:08:47;;;;;;;0.50;0.50;;;;;;;7.75;99.58;98858.88;5066743;28;20045;-71
2023/11/09 03:11:19;;;;;;;0.38;0.38;;;;;;;7.67;100.00;98866.78;5066719;28;20025;-71
2023/11/09 03:13:45;;;;;;;0.50;0.50;;;;;;;7.62;100.00;98853.16;5066544;28;20017;-71
2023/11/09 03:16:11;;;;;;;0.40;0.40;;;;;;;7.59;100.00;98841.13;5067295;28;20053;-71
2023/11/09 03:18:36;;;;;;;0.40;0.40;;;;;;;7.79;100.00;98857.94;5067911;28;20055;-71
2023/11/09 03:21:02;;;;;;;0.40;0.40;;;;;;;7.68;100.00;98847.84;5066540;28;20025;-70
2023/11/09 03:23:27;;;;;;;0.30;0.30;;;;;;;7.63;100.00;98845.38;5066299;28;20032;-70
2023/11/09 03:25:54;;;;;;;0.40;0.40;;;;;;;7.79;100.00;98842.44;5066497;28;20441;-71
2023/11/09 03:28:19;;;;;;;0.40;0.40;;;;;;;7.67;100.00;98844.41;5048357;28;20029;-70
2023/11/09 03:30:45;;;;;;;0.40;0.40;;;;;;;7.64;100.00;98841.03;5066449;28;20079;-71
2023/11/09 03:33:14;;;;;;;0.40;0.40;;;;;;;7.59;100.00;98837.72;5066328;28;20021;-71
2023/11/09 03:35:45;;;;;;;0.40;0.40;;;;;;;7.58;100.00;98831.69;5048633;28;20055;-71
2023/11/09 03:38:11;;;;;;;0.50;0.50;;;;;;;7.57;100.00;98837.75;5066098;28;20025;-69
2023/11/09 03:40:36;;;;;;;0.40;0.40;;;;;;;7.59;100.00;98841.13;5048148;28;20500;-70
2023/11/09 03:43:01;;;;;;;0.40;0.40;;;;;;;7.61;100.00;98830.75;5065903;28;20027;-71
2023/11/09 03:45:27;;;;;;;1.05;1.05;;;;;;;7.61;100.00;98826.47;5066163;28;20067;-70
2023/11/09 03:47:53;;;;;;;0.40;0.40;;;;;;;7.57;100.00;98830.00;5047245;28;20024;-72
2023/11/09 03:50:19;;;;;;;0.68;0.68;;;;;;;7.62;100.00;98812.66;5066111;28;20084;-72
2023/11/09 03:52:45;;;;;;;0.40;0.40;;;;;;;7.59;100.00;98820.47;5065704;28;20017;-71
2023/11/09 03:55:14;;;;;;;0.40;0.40;;;;;;;7.65;100.00;98824.66;5048161;28;20028;-73
2023/11/09 03:57:39;;;;;;;0.40;0.40;;;;;;;7.62;100.00;98812.66;5066165;28;20455;-72
2023/11/09 04:00:10;;;;;;;0.40;0.40;;;;;;;7.70;100.00;98812.47;5047895;28;20021;-73
2023/11/09 04:02:36;;;;;;;0.40;0.40;;;;;;;7.74;100.00;98808.09;5065622;28;20493;-72
2023/11/09 04:05:02;;;;;;;0.40;0.40;;;;;;;7.66;100.00;98808.28;5065728;28;20056;-72
2023/11/09 04:07:28;;;;;;;0.40;0.40;;;;;;;7.81;100.00;98802.75;5065671;28;20052;-71
2023/11/09 04:09:54;;;;;;;0.40;0.40;;;;;;;7.67;100.00;98797.91;5065769;28;20025;-72
2023/11/09 04:12:20;;;;;;;0.40;0.40;;;;;;;7.63;100.00;98793.72;5047581;28;20033;-72
2023/11/09 04:14:45;;;;;;;0.40;0.40;;;;;;;7.65;100.00;98799.66;5065738;28;20021;-72
2023/11/09 04:17:11;;;;;;;0.40;0.40;;;;;;;7.70;100.00;98799.56;5065527;28;20060;-72
2023/11/09 04:19:36;;;;;;;0.40;0.40;;;;;;;7.81;100.00;98799.34;5065481;28;20029;-72
2023/11/09 04:22:04;;;;;;;0.40;0.40;;;;;;;7.75;100.00;98804.63;5065266;28;20090;-71
2023/11/09 04:24:29;;;;;;;0.40;0.40;;;;;;;7.72;100.00;98789.19;5065410;28;20488;-72
2023/11/09 04:26:54;;;;;;;0.40;0.40;;;;;;;7.72;100.00;98797.81;5065294;28;20088;-71
2023/11/09 04:29:20;;;;;;;0.40;0.40;;;;;;;7.64;100.00;98782.47;5065231;28;20440;-71
2023/11/09 04:31:47;;;;;;;0.40;0.40;;;;;;;7.69;100.00;98790.97;5065153;28;20051;-71
2023/11/09 04:34:14;;;;;;;0.40;0.40;;;;;;;7.67;100.00;98778.97;5047206;28;20031;-72
2023/11/09 04:36:42;;;;;;;0.40;0.40;;;;;;;7.71;100.00;98782.34;5047285;28;20033;-71
2023/11/09 04:39:08;;;;;;;0.40;0.40;;;;;;;7.76;100.00;98788.25;5065010;28;20093;-72
2023/11/09 04:41:34;;;;;;;0.40;0.40;;;;;;;7.76;100.00;98776.19;5047243;28;20060;-71
2023/11/09 04:44:00;;;;;;;0.40;0.40;;;;;;;7.81;100.00;98776.09;5064957;28;20033;-72
2023/11/09 04:46:25;;;;;;;0.40;0.40;;;;;;;7.78;100.00;98777.00;5065022;28;20138;-72
2023/11/09 04:48:55;;;;;;;0.40;0.40;;;;;;;7.85;100.00;98767.38;5064958;28;20025;-72
2023/11/09 04:51:30;;;;;;;0.40;0.40;;;;;;;7.78;100.00;98781.34;5064991;28;20109;-71
2023/11/09 04:54:16;;;;;;;0.40;0.40;;;;;;;7.73;100.00;98762.50;5064700;28;20017;-71
2023/11/09 04:58:44;;;;;;;0.40;0.40;;;;;;;7.71;100.00;98765.13;5064934;28;20409;-71
2023/11/09 05:07:32;;;;;;;0.40;0.40;;;;;;;7.83;100.00;98758.78;5064483;28;20052;-71
2023/11/09 05:09:58;;;;;;;0.40;0.40;;;;;;;7.77;100.00;98757.22;5064760;28;20025;-70
2023/11/09 05:12:24;;;;;;;0.40;0.40;;;;;;;7.79;100.00;98775.28;5064665;28;20081;-69
2023/11/09 05:14:50;;;;;;;0.40;0.40;;;;;;;7.81;100.00;98752.84;5064660;28;20055;-72
2023/11/09 05:17:15;;;;;;;0.40;0.40;;;;;;;7.81;100.00;98752.84;5064765;28;20024;-72
2023/11/09 05:19:42;;;;;;;0.40;0.40;;;;;;;7.84;100.00;98749.31;5046816;28;20021;-71
2023/11/09 05:22:10;;;;;;;0.40;0.40;;;;;;;7.86;100.00;98747.56;5064259;28;20071;-71
2023/11/09 05:24:37;;;;;;;0.35;0.35;;;;;;;7.86;100.00;98743.22;5046469;28;20040;-70
2023/11/09 05:27:03;;;;;;;0.40;0.40;;;;;;;7.84;100.00;98742.44;5064449;28;20537;-71
2023/11/09 05:29:32;;;;;;;0.40;0.40;;;;;;;7.90;100.00;98744.88;5046644;28;20025;-71
2023/11/09 05:31:57;;;;;;;0.30;0.30;;;;;;;7.81;100.00;98737.34;5046552;28;20028;-72
2023/11/09 05:34:23;;;;;;;0.40;0.40;;;;;;;7.85;100.00;98741.53;5046455;28;20021;-72
2023/11/09 05:36:49;;;;;;;0.40;0.40;;;;;;;7.93;100.00;98757.72;5046431;28;20017;-73
2023/11/09 05:39:14;;;;;;;0.30;0.30;;;;;;;7.92;100.00;98743.06;5046170;28;20052;-72
2023/11/09 05:41:43;;;;;;;0.30;0.30;;;;;;;7.87;100.00;98733.75;5064430;28;20028;-70
2023/11/09 05:44:09;;;;;;;0.30;0.30;;;;;;;7.91;100.00;98743.09;5046580;28;20032;-72
2023/11/09 05:46:36;;;;;;;0.40;0.40;;;;;;;7.91;100.00;98737.94;5064393;28;20397;-71
2023/11/09 05:49:01;;;;;;;0.40;0.40;;;;;;;7.99;100.00;98748.09;5046527;28;20044;-72
2023/11/09 05:51:28;;;;;;;0.40;0.40;;;;;;;7.93;100.00;98738.75;5064517;28;20021;-71
2023/11/09 05:53:53;;;;;;;0.40;0.40;;;;;;;7.98;100.00;98747.25;5064332;28;20021;-71
2023/11/09 05:56:23;;;;;;;0.40;0.40;;;;;;;7.99;100.00;98753.25;5064379;28;20043;-72
2023/11/09 05:58:48;;;;;;;0.30;0.30;;;;;;;7.95;100.00;98747.34;5064304;28;20086;-71
2023/11/09 06:01:14;;;;;;;0.40;0.40;;;;;;;7.97;100.00;98750.72;5064788;28;20100;-71
2023/11/09 06:03:39;;;;;;;0.40;0.40;;;;;;;7.98;100.00;98752.44;5065428;28;20084;-74
2023/11/09 06:06:05;;;;;;;0.40;0.40;;;;;;;8.04;100.00;98757.44;5064190;28;20048;-72
2023/11/09 06:08:30;;;;;;;0.40;0.40;;;;;;;8.05;100.00;98753.13;5064126;28;20079;-72
2023/11/09 06:10:57;;;;;;;0.40;0.40;;;;;;;8.05;100.00;98761.72;5066886;28;20036;-71
2023/11/09 06:13:23;;;;;;;0.40;0.40;;;;;;;8.07;100.00;98756.50;5050193;28;20020;-72
2023/11/09 06:15:48;;;;;;;0.40;0.40;;;;;;;7.97;100.00;98742.13;5068127;28;20028;-74
2023/11/09 06:18:14;;;;;;;0.40;0.40;;;;;;;8.05;100.00;98755.72;5050042;28;20032;-70
2023/11/09 06:20:41;;;;;;;0.40;0.40;;;;;;;8.10;100.00;98766.75;5049565;28;20025;-71
2023/11/09 06:23:07;;;;;;;0.40;0.40;;;;;;;8.11;100.00;98758.16;5067566;28;20021;-71
2023/11/09 06:25:32;;;;;;;0.40;0.40;;;;;;;8.12;100.00;98764.13;5049739;28;20016;-70
2023/11/09 06:27:58;;;;;;;0.40;0.40;;;;;;;8.12;100.00;98762.41;5049685;28;20104;-71
2023/11/09 06:30:27;;;;;;;0.40;0.40;;;;;;;8.12;100.00;98758.97;5067412;28;20075;-70
2023/11/09 06:32:53;;;;;;;0.40;0.40;;;;;;;8.14;100.00;98768.41;5067582;28;20025;-71
2023/11/09 06:35:18;;;;;;;0.40;0.40;;;;;;;8.16;100.00;98766.59;5067348;28;20021;-70
2023/11/09 06:37:45;;;;;;;0.32;0.32;;;;;;;8.18;100.00;98770.00;5067214;28;20491;-71
2023/11/09 06:40:16;;;;;;;0.40;0.40;;;;;;;8.13;100.00;98750.34;5049389;28;20487;-71
2023/11/09 06:42:43;;;;;;;0.30;0.30;;;;;;;8.21;100.00;98758.72;5067402;28;20497;-71
2023/11/09 06:45:09;;;;;;;0.40;0.40;;;;;;;8.23;100.00;98763.88;5067286;28;20033;-72
2023/11/09 06:47:35;;;;;;;0.40;0.40;;;;;;;8.26;100.00;98763.81;5067436;28;20032;-72
2023/11/09 06:50:01;;;;;;;0.40;0.40;;;;;;;8.29;100.00;98761.97;5067272;28;20032;-72
2023/11/09 06:52:27;;;;;;;0.40;0.40;;;;;;;8.29;100.00;98758.56;5066851;28;20028;-72
2023/11/09 06:54:53;;;;;;;0.40;0.40;;;;;;;8.32;100.00;98761.06;5049077;28;20021;-72
2023/11/09 06:57:18;;;;;;;0.40;0.40;;;;;;;8.34;100.00;98759.28;5048856;28;20088;-72
2023/11/09 06:59:43;;;;;;;0.32;0.32;;;;;;;8.34;100.00;98755.88;5067012;28;20044;-72
2023/11/09 07:02:09;;;;;;;0.40;0.40;;;;;;;8.36;100.00;98749.75;5067002;28;20024;-72
2023/11/09 07:04:34;;;;;;;0.40;0.40;;;;;;;8.36;100.00;98754.94;5048879;28;20075;-72
2023/11/09 07:06:59;;;;;;;0.40;0.40;;;;;;;8.38;100.00;98755.75;5066950;28;20045;-71
2023/11/09 07:09:25;;;;;;;0.40;0.40;;;;;;;8.40;100.00;98750.53;5067024;28;20044;-71
2023/11/09 07:11:54;;;;;;;0.40;0.40;;;;;;;8.42;100.00;98756.50;5067148;28;20041;-71
2023/11/09 07:14:23;;;;;;;0.40;0.40;;;;;;;8.36;100.00;98746.31;5066843;28;20516;-70
2023/11/09 07:16:54;;;;;;;0.40;0.40;;;;;;;8.46;100.00;98757.25;5066835;28;20035;-71
2023/11/09 07:19:21;;;;;;;0.50;0.50;;;;;;;8.49;100.00;98757.19;5049101;28;20397;-71
2023/11/09 07:21:46;;;;;;;0.40;0.40;;;;;;;8.48;100.00;98758.09;5047769;28;20036;-71
2023/11/09 07:24:13;;;;;;;0.32;0.32;;;;;;;8.50;100.00;98756.31;5066623;28;20021;-71
2023/11/09 07:26:42;;;;;;;0.40;0.40;;;;;;;8.51;100.00;98758.00;5066817;28;20084;-71
2023/11/09 07:29:09;;;;;;;0.40;0.40;;;;;;;8.55;100.00;98764.81;5066888;28;20491;-71
2023/11/09 07:31:35;;;;;;;0.40;0.40;;;;;;;8.53;100.00;98753.66;5065510;28;20024;-71
2023/11/09 07:34:01;;;;;;;0.40;0.40;;;;;;;8.53;100.00;98753.66;5066654;28;20032;-72
2023/11/09 07:36:29;;;;;;;0.40;0.40;;;;;;;8.55;100.00;98755.31;5066998;28;20021;-72
2023/11/09 07:38:54;;;;;;;0.38;0.38;;;;;;;8.60;100.00;98755.19;5048577;28;20040;-72
2023/11/09 07:41:24;;;;;;;0.40;0.40;;;;;;;8.63;100.00;98767.19;5066599;28;20020;-72
2023/11/09 07:43:49;;;;;;;0.40;0.40;;;;;;;8.64;100.00;98767.16;5048197;28;20025;-71
2023/11/09 07:46:15;;;;;;;0.40;0.40;;;;;;;8.63;100.00;98760.28;5066307;28;20029;-71
2023/11/09 07:48:40;;;;;;;0.40;0.40;;;;;;;8.64;100.00;98764.56;5066432;28;20055;-71
2023/11/09 07:51:06;;;;;;;0.40;0.40;;;;;;;8.66;100.00;98767.09;5066305;28;20029;-72
2023/11/09 07:53:32;;;;;;;0.40;0.40;;;;;;;8.62;100.00;98763.78;5048155;28;20021;-72
2023/11/09 07:55:58;;;;;;;0.38;0.38;;;;;;;8.65;100.00;98775.75;5066383;28;20088;-72
2023/11/09 07:58:23;;;;;;;0.40;0.40;;;;;;;8.62;100.00;98774.13;5066242;28;20028;-71
2023/11/09 08:00:52;;;;;;;0.40;0.40;;;;;;;8.65;100.00;98774.03;5066052;28;20029;-71
2023/11/09 08:03:17;;;;;;;0.40;0.40;;;;;;;8.67;100.00;98777.41;5066040;28;20025;-71
2023/11/09 08:05:43;;;;;;;0.40;0.40;;;;;;;8.70;100.00;98773.06;5047939;28;20017;-71
2023/11/09 08:08:11;;;;;;;0.40;0.40;;;;;;;8.71;100.00;98780.78;5065491;28;20425;-72
2023/11/09 08:10:37;;;;;;;0.38;0.38;;;;;;;8.71;100.00;98766.97;5065919;28;20021;-72
2023/11/09 08:13:03;;;;;;;0.40;0.40;;;;;;;8.77;100.00;98766.84;5047874;28;20520;-73
2023/11/09 08:15:28;;;;;;;0.40;0.40;;;;;;;8.74;100.00;98760.00;5065949;28;20021;-71
2023/11/09 08:17:54;;;;;;;0.40;0.40;;;;;;;8.80;100.00;98766.75;5065792;28;20040;-71
2023/11/09 08:20:19;;;;;;;0.40;0.40;;;;;;;8.77;100.00;98751.31;5065642;28;20028;-71
2023/11/09 08:22:47;;;;;;;0.40;0.40;;;;;;;8.86;100.00;98761.41;5065400;28;20503;-71
2023/11/09 08:25:20;;;;;;;0.40;0.40;;;;;;;8.89;100.00;98761.31;5065509;28;20389;-71
2023/11/09 08:27:46;;;;;;;0.40;0.40;;;;;;;8.89;100.00;98760.47;5065720;28;20112;-71
2023/11/09 08:30:15;;;;;;;0.30;0.30;;;;;;;8.92;100.00;98761.22;5065699;28;20024;-72
2023/11/09 08:32:45;;;;;;;0.40;0.40;;;;;;;8.93;100.00;98760.31;5065406;28;20031;-71
2023/11/09 08:35:11;;;;;;;0.40;0.40;;;;;;;8.94;100.00;98763.78;5065635;28;20028;-71
2023/11/09 08:37:43;;;;;;;0.40;0.40;;;;;;;8.93;100.00;98768.09;5065084;28;20055;-71
2023/11/09 08:40:17;;;;;;;0.30;0.30;;;;;;;8.94;100.00;98758.59;5065445;28;20009;-72
2023/11/09 08:42:48;;;;;;;0.35;0.35;;;;;;;8.93;100.00;98768.09;5065218;28;20327;-71
2023/11/09 08:45:14;;;;;;;0.40;0.40;;;;;;;8.92;100.00;98771.56;5065382;28;20016;-71
2023/11/09 08:47:39;;;;;;;0.30;0.30;;;;;;;8.90;100.00;98770.75;5065814;28;20016;-71
2023/11/09 08:50:08;;;;;;;0.40;0.40;;;;;;;8.89;100.00;98769.06;5065456;28;20052;-71
2023/11/09 08:52:34;;;;;;;0.40;0.40;;;;;;;8.89;100.00;98765.63;5064899;28;20024;-71
2023/11/09 08:55:02;;;;;;;0.40;0.40;;;;;;;8.91;100.00;98771.63;5065280;28;20020;-71
2023/11/09 08:57:31;;;;;;;0.30;0.30;;;;;;;8.85;100.00;98758.84;5065305;28;20025;-71
2023/11/09 08:59:56;;;;;;;0.40;0.40;;;;;;;8.92;100.00;98770.72;5065116;28;20021;-71
2023/11/09 09:02:21;;;;;;;0.40;0.40;;;;;;;8.96;100.00;98767.16;5065013;28;20085;-71
2023/11/09 09:04:47;;;;;;;0.40;0.40;;;;;;;8.99;100.00;98761.06;5064910;28;20065;-72
2023/11/09 09:07:14;;;;;;;0.32;0.32;;;;;;;8.96;100.00;98758.56;5064961;28;20049;-69
2023/11/09 09:09:43;;;;;;;0.40;0.40;;;;;;;9.01;100.00;98769.63;5064854;28;20048;-71
2023/11/09 09:12:10;;;;;;;0.30;0.30;;;;;;;9.02;100.00;98760.97;5064999;28;20021;-71
2023/11/09 09:14:35;;;;;;;0.38;0.38;;;;;;;9.05;100.00;98776.41;5064863;28;20013;-71
2023/11/09 09:17:05;;;;;;;0.30;0.30;;;;;;;8.97;100.00;98747.28;5064952;28;20033;-71
2023/11/09 09:19:30;;;;;;;0.38;0.38;;;;;;;9.02;100.00;98750.59;5065013;28;20113;-72
2023/11/09 09:21:56;;;;;;;0.40;0.40;;;;;;;9.08;100.00;98760.78;5064904;28;20021;-71
2023/11/09 09:24:23;;;;;;;0.40;0.40;;;;;;;9.11;100.00;98758.09;5064580;28;20486;-71
2023/11/09 09:26:48;;;;;;;0.40;0.40;;;;;;;9.09;100.00;98759.06;5064905;28;20017;-71
2023/11/09 09:29:16;;;;;;;0.43;0.43;;;;;;;9.03;100.00;98755.75;5064978;28;20028;-72
2023/11/09 09:31:42;;;;;;;0.38;0.38;;;;;;;9.05;100.00;98771.22;5065013;28;20031;-71
2023/11/09 09:34:08;;;;;;;0.40;0.40;;;;;;;9.07;100.00;98772.03;5064764;28;20100;-71
2023/11/09 09:36:37;;;;;;;0.40;0.40;;;;;;;9.06;100.00;98767.72;5065271;28;20064;-73
2023/11/09 09:39:03;;;;;;;0.30;0.30;;;;;;;9.05;100.00;98759.13;5064557;28;20060;-71
2023/11/09 09:41:40;;;;;;;0.40;0.40;;;;;;;9.11;100.00;98763.28;5064772;28;20029;-71
2023/11/09 09:44:12;;;;;;;0.30;0.30;;;;;;;9.14;100.00;98765.78;5064635;28;20111;-72
2023/11/09 09:46:40;;;;;;;0.45;0.45;;;;;;;9.14;100.00;98764.91;5067446;28;20024;-71
2023/11/09 09:49:08;;;;;;;0.40;0.40;;;;;;;9.12;100.00;98756.38;5068991;28;20116;-71
2023/11/09 09:51:36;;;;;;;0.30;0.30;;;;;;;9.10;100.00;98758.16;5068623;28;20020;-71
2023/11/09 09:54:02;;;;;;;0.40;0.40;;;;;;;9.09;100.00;98766.81;5067295;28;20021;-71
2023/11/09 09:56:29;;;;;;;0.30;0.30;;;;;;;9.01;100.00;98754.09;5068300;28;20028;-71
2023/11/09 09:58:56;;;;;;;0.40;0.40;;;;;;;9.03;100.00;98755.75;5068508;28;20096;-71
2023/11/09 10:01:22;;;;;;;0.38;0.38;;;;;;;9.07;100.00;98759.09;5068322;28;20021;-72
2023/11/09 10:03:52;;;;;;;0.40;0.40;;;;;;;9.08;100.00;98755.59;5068245;28;20494;-72
2023/11/09 10:06:21;;;;;;;0.40;0.40;;;;;;;9.11;100.00;98752.06;5050266;28;20044;-71
2023/11/09 10:08:47;;;;;;;0.30;0.30;;;;;;;9.11;100.00;98749.47;5067969;28;20501;-72
2023/11/09 10:11:15;;;;;;;0.50;0.50;;;;;;;9.21;100.00;98750.06;5068179;28;20031;-71
2023/11/09 10:13:46;;;;;;;0.30;0.30;;;;;;;9.23;100.00;98745.69;5068064;28;20017;-71
2023/11/09 10:16:14;;;;;;;0.40;0.40;;;;;;;9.27;100.00;98753.31;5068106;28;20468;-72
2023/11/09 10:18:39;;;;;;;0.40;0.40;;;;;;;9.25;100.00;98742.16;5050138;28;20121;-72
2023/11/09 10:21:06;;;;;;;0.40;0.40;;;;;;;9.31;100.00;98746.31;5049883;28;20025;-72
2023/11/09 10:23:32;;;;;;;0.40;0.40;;;;;;;9.36;100.00;98741.00;5067711;28;20021;-71
2023/11/09 10:26:00;;;;;;;0.30;0.30;;;;;;;9.36;100.00;98738.41;5067976;28;20100;-72
2023/11/09 10:28:28;;;;;;;0.40;0.40;;;;;;;9.31;100.00;98738.56;5068105;28;20021;-71
2023/11/09 10:30:53;;;;;;;0.40;0.40;;;;;;;9.29;100.00;98735.16;5049933;28;20101;-72
2023/11/09 10:33:19;;;;;;;0.30;0.30;;;;;;;9.25;100.00;98736.16;5049753;28;20037;-71
2023/11/09 10:35:46;;;;;;;0.40;0.40;;;;;;;9.26;100.00;98737.84;5067747;28;20032;-71
2023/11/09 10:38:14;;;;;;;0.30;0.30;;;;;;;9.27;100.00;98734.34;5067625;28;20078;-72
2023/11/09 10:40:43;;;;;;;0.30;0.30;;;;;;;9.31;100.00;98738.56;5049582;28;20393;-71
2023/11/09 10:43:14;;;;;;;0.40;0.40;;;;;;;9.30;100.00;98734.25;5067506;28;20040;-71
2023/11/09 10:45:46;;;;;;;0.30;0.30;;;;;;;9.29;100.00;98743.78;5067766;28;20032;-71
2023/11/09 10:48:22;;;;;;;0.40;0.40;;;;;;;9.26;100.00;98741.28;5067526;28;20051;-71
2023/11/09 10:50:49;;;;;;;0.30;0.30;;;;;;;9.23;100.00;98738.78;5067622;28;20029;-70
2023/11/09 10:53:18;;;;;;;0.30;0.30;;;;;;;9.23;100.00;98738.78;5067295;28;20036;-72
2023/11/09 10:55:59;;;;;;;0.30;0.30;;;;;;;9.21;100.00;98732.78;5048661;28;20032;-71
2023/11/09 10:58:26;;;;;;;0.30;0.30;;;;;;;9.28;100.00;98734.28;5067032;28;20485;-71
2023/11/09 11:00:58;;;;;;;0.40;0.40;;;;;;;9.36;100.00;98734.06;5067253;28;20432;-71
2023/11/09 11:03:38;;;;;;;0.30;0.30;;;;;;;9.41;100.00;98734.78;5049304;28;20017;-71
2023/11/09 11:06:17;;;;;;;0.30;0.30;;;;;;;9.42;100.00;98733.88;5067200;28;20025;-71
2023/11/09 11:08:46;;;;;;;0.38;0.38;;;;;;;9.40;100.00;98730.50;5066814;28;20056;-71
2023/11/09 11:11:17;;;;;;;0.40;0.40;;;;;;;9.42;100.00;98728.69;5067011;28;20105;-71
2023/11/09 11:13:57;;;;;;;0.40;0.40;;;;;;;9.48;100.00;98732.84;5066657;28;20024;-71
2023/11/09 11:16:31;;;;;;;0.35;0.35;;;;;;;9.55;100.00;98733.50;5066640;28;20029;-71
2023/11/09 11:19:27;;;;;;;0.30;0.30;;;;;;;9.59;100.00;98724.75;5066846;28;20028;-70
2023/11/09 11:22:01;;;;;;;0.30;0.30;;;;;;;9.64;100.00;98722.84;5067074;28;20029;-70
2023/11/09 11:24:58;;;;;;;0.30;0.30;;;;;;;9.66;100.00;98721.03;5066604;28;20017;-70
2023/11/09 11:27:37;;;;;;;0.30;0.30;;;;;;;9.62;100.00;98723.78;5048629;28;20025;-70
2023/11/09 11:30:32;;;;;;;0.30;0.30;;;;;;;9.60;100.00;98721.25;5066823;28;20024;-70
2023/11/09 11:33:04;;;;;;;0.30;0.30;;;;;;;9.49;100.00;98707.81;5066865;28;20029;-70
2023/11/09 11:35:35;;;;;;;0.30;0.30;;;;;;;9.44;100.00;98715.69;5066757;28;20021;-70
2023/11/09 11:38:15;;;;;;;0.40;0.40;;;;;;;9.39;100.00;98721.00;5048302;28;20028;-69
2023/11/09 11:40:41;;;;;;;0.38;0.38;;;;;;;9.38;100.00;98727.09;5066533;28;20024;-70
2023/11/09 11:43:08;;;;;;;0.35;0.35;;;;;;;9.36;100.00;98734.06;5066163;28;20407;-71
2023/11/09 11:45:38;;;;;;;0.30;0.30;;;;;;;9.27;100.00;98736.94;5048429;28;20096;-70